sensor_id;sensor_type;location;lat;lon;timestamp;P1;durP1;ratioP1;P2;durP2;ratioP2
15936;SDS011;9163;48.818;8.976;2023-07-22T00:01:06;4.10;;;2.50;;
15936;SDS011;9163;48.818;8.976;2023-07-22T00:03:33;4.20;;;2.57;;
15936;SDS011;9163;48.818;8.976;2023-07-22T00:06:04;3.93;;;2.60;;
15936;SDS011;9163;48.818;8.976;2023-07-22T00:08:31;2.57;;;2.37;;
15936;SDS011;9163;48.818;8.976;2023-07-22T00:10:59;3.73;;;2.57;;
15936;SDS011;9163;48.818;8.976;2023-07-22T00:13:28;4.53;;;2.47;;
15936;SDS011;9163;48.818;8.976;2023-07-22T00:15:56;3.70;;;2.60;;
15936;SDS011;9163;48.818;8.976;2023-07-22T00:18:24;3.80;;;2.80;;
15936;SDS011;9163;48.818;8.976;2023-07-22T00:20:52;3.97;;;2.43;;
15936;SDS011;9163;48.818;8.976;2023-07-22T00:23:20;3.57;;;2.80;;
15936;SDS011;9163;48.818;8.976;2023-07-22T00:25:47;4.90;;;2.70;;
15936;SDS011;9163;48.818;8.976;2023-07-22T00:28:15;3.53;;;2.63;;
15936;SDS011;9163;48.818;8.976;2023-07-22T00:30:45;3.27;;;2.63;;
15936;SDS011;9163;48.818;8.976;2023-07-22T00:33:14;3.50;;;2.60;;
15936;SDS011;9163;48.818;8.976;2023-07-22T00:35:42;4.93;;;2.60;;
15936;SDS011;9163;48.818;8.976;2023-07-22T00:38:09;3.73;;;2.47;;
15936;SDS011;9163;48.818;8.976;2023-07-22T00:40:36;3.17;;;2.50;;
15936;SDS011;9163;48.818;8.976;2023-07-22T00:43:04;4.60;;;2.80;;
15936;SDS011;9163;48.818;8.976;2023-07-22T00:45:32;5.47;;;2.70;;
15936;SDS011;9163;48.818;8.976;2023-07-22T00:48:01;5.83;;;2.87;;
15936;SDS011;9163;48.818;8.976;2023-07-22T00:50:29;5.37;;;3.20;;
15936;SDS011;9163;48.818;8.976;2023-07-22T00:52:56;4.93;;;2.70;;
15936;SDS011;9163;48.818;8.976;2023-07-22T00:55:24;3.87;;;2.60;;
15936;SDS011;9163;48.818;8.976;2023-07-22T00:57:52;3.93;;;3.00;;
15936;SDS011;9163;48.818;8.976;2023-07-22T01:00:21;4.00;;;3.10;;
15936;SDS011;9163;48.818;8.976;2023-07-22T01:02:48;4.03;;;2.80;;
15936;SDS011;9163;48.818;8.976;2023-07-22T01:05:17;4.73;;;2.90;;
15936;SDS011;9163;48.818;8.976;2023-07-22T01:07:44;4.10;;;2.90;;
15936;SDS011;9163;48.818;8.976;2023-07-22T01:10:12;5.20;;;3.10;;
15936;SDS011;9163;48.818;8.976;2023-07-22T01:12:40;3.40;;;2.70;;
15936;SDS011;9163;48.818;8.976;2023-07-22T01:15:07;4.37;;;3.00;;
15936;SDS011;9163;48.818;8.976;2023-07-22T01:17:36;5.40;;;2.90;;
15936;SDS011;9163;48.818;8.976;2023-07-22T01:20:04;5.47;;;3.20;;
15936;SDS011;9163;48.818;8.976;2023-07-22T01:22:34;4.87;;;3.10;;
15936;SDS011;9163;48.818;8.976;2023-07-22T01:25:04;6.77;;;3.20;;
15936;SDS011;9163;48.818;8.976;2023-07-22T01:27:32;4.17;;;2.80;;
15936;SDS011;9163;48.818;8.976;2023-07-22T01:30:00;5.00;;;3.10;;
15936;SDS011;9163;48.818;8.976;2023-07-22T01:32:29;4.47;;;3.10;;
15936;SDS011;9163;48.818;8.976;2023-07-22T01:34:57;4.00;;;2.80;;
15936;SDS011;9163;48.818;8.976;2023-07-22T01:37:24;4.10;;;3.13;;
15936;SDS011;9163;48.818;8.976;2023-07-22T01:39:51;4.53;;;3.20;;
15936;SDS011;9163;48.818;8.976;2023-07-22T01:42:22;6.77;;;3.40;;
15936;SDS011;9163;48.818;8.976;2023-07-22T01:44:49;5.07;;;3.63;;
15936;SDS011;9163;48.818;8.976;2023-07-22T01:47:17;4.13;;;3.30;;
15936;SDS011;9163;48.818;8.976;2023-07-22T01:49:44;4.50;;;3.27;;
15936;SDS011;9163;48.818;8.976;2023-07-22T01:52:11;4.07;;;3.20;;
15936;SDS011;9163;48.818;8.976;2023-07-22T01:54:38;3.60;;;2.93;;
15936;SDS011;9163;48.818;8.976;2023-07-22T01:57:06;4.97;;;3.30;;
15936;SDS011;9163;48.818;8.976;2023-07-22T01:59:34;5.03;;;3.20;;
15936;SDS011;9163;48.818;8.976;2023-07-22T02:02:01;4.93;;;3.47;;
15936;SDS011;9163;48.818;8.976;2023-07-22T02:04:29;4.07;;;2.93;;
15936;SDS011;9163;48.818;8.976;2023-07-22T02:06:56;4.70;;;3.50;;
15936;SDS011;9163;48.818;8.976;2023-07-22T02:09:24;5.77;;;3.30;;
15936;SDS011;9163;48.818;8.976;2023-07-22T02:11:51;5.03;;;3.30;;
15936;SDS011;9163;48.818;8.976;2023-07-22T02:14:18;4.63;;;3.03;;
15936;SDS011;9163;48.818;8.976;2023-07-22T02:16:47;5.47;;;3.37;;
15936;SDS011;9163;48.818;8.976;2023-07-22T02:19:14;4.93;;;3.40;;
15936;SDS011;9163;48.818;8.976;2023-07-22T02:21:42;4.13;;;3.30;;
15936;SDS011;9163;48.818;8.976;2023-07-22T02:24:09;4.27;;;3.60;;
15936;SDS011;9163;48.818;8.976;2023-07-22T02:26:37;4.03;;;3.33;;
15936;SDS011;9163;48.818;8.976;2023-07-22T02:29:04;4.80;;;3.53;;
15936;SDS011;9163;48.818;8.976;2023-07-22T02:31:31;5.00;;;3.60;;
15936;SDS011;9163;48.818;8.976;2023-07-22T02:34:00;4.27;;;3.40;;
15936;SDS011;9163;48.818;8.976;2023-07-22T02:36:27;5.17;;;3.40;;
15936;SDS011;9163;48.818;8.976;2023-07-22T02:38:54;4.63;;;3.67;;
15936;SDS011;9163;48.818;8.976;2023-07-22T02:41:21;5.43;;;3.50;;
15936;SDS011;9163;48.818;8.976;2023-07-22T02:43:49;5.03;;;3.43;;
15936;SDS011;9163;48.818;8.976;2023-07-22T02:46:16;4.80;;;3.67;;
15936;SDS011;9163;48.818;8.976;2023-07-22T02:48:43;5.63;;;3.80;;
15936;SDS011;9163;48.818;8.976;2023-07-22T02:51:12;6.87;;;3.60;;
15936;SDS011;9163;48.818;8.976;2023-07-22T02:53:39;6.37;;;3.60;;
15936;SDS011;9163;48.818;8.976;2023-07-22T02:56:07;5.73;;;4.03;;
15936;SDS011;9163;48.818;8.976;2023-07-22T02:58:34;4.83;;;3.50;;
15936;SDS011;9163;48.818;8.976;2023-07-22T03:01:02;5.80;;;3.37;;
15936;SDS011;9163;48.818;8.976;2023-07-22T03:03:30;5.30;;;3.20;;
15936;SDS011;9163;48.818;8.976;2023-07-22T03:05:58;5.87;;;3.77;;
15936;SDS011;9163;48.818;8.976;2023-07-22T03:08:27;6.10;;;3.63;;
15936;SDS011;9163;48.818;8.976;2023-07-22T03:10:54;5.63;;;3.63;;
15936;SDS011;9163;48.818;8.976;2023-07-22T03:13:22;4.60;;;3.47;;
15936;SDS011;9163;48.818;8.976;2023-07-22T03:15:49;6.90;;;3.50;;
15936;SDS011;9163;48.818;8.976;2023-07-22T03:18:16;6.07;;;3.63;;
15936;SDS011;9163;48.818;8.976;2023-07-22T03:20:43;7.33;;;3.90;;
15936;SDS011;9163;48.818;8.976;2023-07-22T03:23:11;4.67;;;3.60;;
15936;SDS011;9163;48.818;8.976;2023-07-22T03:25:40;5.50;;;3.93;;
15936;SDS011;9163;48.818;8.976;2023-07-22T03:28:07;5.13;;;4.00;;
15936;SDS011;9163;48.818;8.976;2023-07-22T03:30:35;5.50;;;3.43;;
15936;SDS011;9163;48.818;8.976;2023-07-22T03:33:02;5.73;;;4.10;;
15936;SDS011;9163;48.818;8.976;2023-07-22T03:35:29;4.20;;;3.50;;
15936;SDS011;9163;48.818;8.976;2023-07-22T03:37:56;4.57;;;3.70;;
15936;SDS011;9163;48.818;8.976;2023-07-22T03:40:24;7.33;;;3.60;;
15936;SDS011;9163;48.818;8.976;2023-07-22T03:42:57;5.83;;;3.40;;
15936;SDS011;9163;48.818;8.976;2023-07-22T03:45:24;5.30;;;3.73;;
15936;SDS011;9163;48.818;8.976;2023-07-22T03:47:52;4.70;;;3.40;;
15936;SDS011;9163;48.818;8.976;2023-07-22T03:50:22;6.17;;;3.60;;
15936;SDS011;9163;48.818;8.976;2023-07-22T03:52:49;6.10;;;3.27;;
15936;SDS011;9163;48.818;8.976;2023-07-22T03:55:16;5.40;;;3.60;;
15936;SDS011;9163;48.818;8.976;2023-07-22T03:57:45;4.90;;;3.40;;
15936;SDS011;9163;48.818;8.976;2023-07-22T04:00:13;4.93;;;3.43;;
15936;SDS011;9163;48.818;8.976;2023-07-22T04:02:41;6.53;;;4.00;;
15936;SDS011;9163;48.818;8.976;2023-07-22T04:05:08;4.00;;;3.33;;
15936;SDS011;9163;48.818;8.976;2023-07-22T04:07:36;5.13;;;3.50;;
15936;SDS011;9163;48.818;8.976;2023-07-22T04:10:04;5.90;;;3.27;;
15936;SDS011;9163;48.818;8.976;2023-07-22T04:12:32;4.90;;;3.57;;
15936;SDS011;9163;48.818;8.976;2023-07-22T04:14:59;6.23;;;3.30;;
15936;SDS011;9163;48.818;8.976;2023-07-22T04:17:28;4.33;;;3.37;;
15936;SDS011;9163;48.818;8.976;2023-07-22T04:19:55;4.33;;;3.20;;
15936;SDS011;9163;48.818;8.976;2023-07-22T04:22:22;4.17;;;3.10;;
15936;SDS011;9163;48.818;8.976;2023-07-22T04:24:50;4.80;;;2.97;;
15936;SDS011;9163;48.818;8.976;2023-07-22T04:27:17;5.50;;;3.33;;
15936;SDS011;9163;48.818;8.976;2023-07-22T04:29:44;4.60;;;3.13;;
15936;SDS011;9163;48.818;8.976;2023-07-22T04:32:11;5.83;;;3.43;;
15936;SDS011;9163;48.818;8.976;2023-07-22T04:34:40;4.83;;;3.10;;
15936;SDS011;9163;48.818;8.976;2023-07-22T04:37:07;4.70;;;2.90;;
15936;SDS011;9163;48.818;8.976;2023-07-22T04:39:34;4.50;;;3.37;;
15936;SDS011;9163;48.818;8.976;2023-07-22T04:42:03;4.53;;;3.37;;
15936;SDS011;9163;48.818;8.976;2023-07-22T04:44:31;4.73;;;3.27;;
15936;SDS011;9163;48.818;8.976;2023-07-22T04:46:58;4.50;;;2.90;;
15936;SDS011;9163;48.818;8.976;2023-07-22T04:49:25;4.37;;;3.17;;
15936;SDS011;9163;48.818;8.976;2023-07-22T04:51:54;4.90;;;3.30;;
15936;SDS011;9163;48.818;8.976;2023-07-22T04:54:21;3.80;;;3.00;;
15936;SDS011;9163;48.818;8.976;2023-07-22T04:56:49;4.10;;;3.20;;
15936;SDS011;9163;48.818;8.976;2023-07-22T04:59:16;4.77;;;3.00;;
15936;SDS011;9163;48.818;8.976;2023-07-22T05:01:44;4.47;;;2.97;;
15936;SDS011;9163;48.818;8.976;2023-07-22T05:04:11;4.83;;;2.90;;
15936;SDS011;9163;48.818;8.976;2023-07-22T05:06:38;4.10;;;2.90;;
15936;SDS011;9163;48.818;8.976;2023-07-22T05:09:07;4.57;;;2.90;;
15936;SDS011;9163;48.818;8.976;2023-07-22T05:11:34;4.33;;;3.00;;
15936;SDS011;9163;48.818;8.976;2023-07-22T05:14:01;4.60;;;2.93;;
15936;SDS011;9163;48.818;8.976;2023-07-22T05:16:29;5.83;;;2.67;;
15936;SDS011;9163;48.818;8.976;2023-07-22T05:18:56;5.67;;;3.10;;
15936;SDS011;9163;48.818;8.976;2023-07-22T05:21:23;3.80;;;2.70;;
15936;SDS011;9163;48.818;8.976;2023-07-22T05:23:50;5.70;;;2.87;;
15936;SDS011;9163;48.818;8.976;2023-07-22T05:26:19;4.23;;;2.80;;
15936;SDS011;9163;48.818;8.976;2023-07-22T05:28:46;5.67;;;3.40;;
15936;SDS011;9163;48.818;8.976;2023-07-22T05:31:13;3.73;;;2.93;;
15936;SDS011;9163;48.818;8.976;2023-07-22T05:33:42;5.53;;;2.53;;
15936;SDS011;9163;48.818;8.976;2023-07-22T05:36:09;4.03;;;2.60;;
15936;SDS011;9163;48.818;8.976;2023-07-22T05:38:37;2.50;;;2.23;;
15936;SDS011;9163;48.818;8.976;2023-07-22T05:41:04;4.17;;;2.70;;
15936;SDS011;9163;48.818;8.976;2023-07-22T05:43:32;4.83;;;2.80;;
15936;SDS011;9163;48.818;8.976;2023-07-22T05:46:00;4.00;;;2.50;;
15936;SDS011;9163;48.818;8.976;2023-07-22T05:48:27;3.50;;;2.30;;
15936;SDS011;9163;48.818;8.976;2023-07-22T05:50:54;6.63;;;3.00;;
15936;SDS011;9163;48.818;8.976;2023-07-22T05:53:21;3.47;;;2.50;;
15936;SDS011;9163;48.818;8.976;2023-07-22T05:55:49;4.00;;;2.50;;
15936;SDS011;9163;48.818;8.976;2023-07-22T05:58:16;2.97;;;2.47;;
15936;SDS011;9163;48.818;8.976;2023-07-22T06:00:46;3.20;;;2.53;;
15936;SDS011;9163;48.818;8.976;2023-07-22T06:03:13;4.07;;;2.97;;
15936;SDS011;9163;48.818;8.976;2023-07-22T06:05:40;4.13;;;2.50;;
15936;SDS011;9163;48.818;8.976;2023-07-22T06:08:07;5.33;;;2.20;;
15936;SDS011;9163;48.818;8.976;2023-07-22T06:10:34;2.80;;;2.30;;
15936;SDS011;9163;48.818;8.976;2023-07-22T06:13:03;2.80;;;2.27;;
15936;SDS011;9163;48.818;8.976;2023-07-22T06:15:30;3.50;;;2.37;;
15936;SDS011;9163;48.818;8.976;2023-07-22T06:17:59;4.13;;;2.27;;
15936;SDS011;9163;48.818;8.976;2023-07-22T06:20:27;3.43;;;2.50;;
15936;SDS011;9163;48.818;8.976;2023-07-22T06:22:54;4.00;;;2.40;;
15936;SDS011;9163;48.818;8.976;2023-07-22T06:25:22;2.47;;;2.23;;
15936;SDS011;9163;48.818;8.976;2023-07-22T06:27:49;3.70;;;2.47;;
15936;SDS011;9163;48.818;8.976;2023-07-22T06:30:17;3.67;;;2.57;;
15936;SDS011;9163;48.818;8.976;2023-07-22T06:32:44;4.83;;;2.40;;
15936;SDS011;9163;48.818;8.976;2023-07-22T06:35:12;4.17;;;2.23;;
15936;SDS011;9163;48.818;8.976;2023-07-22T06:37:40;3.90;;;2.20;;
15936;SDS011;9163;48.818;8.976;2023-07-22T06:40:07;2.90;;;2.20;;
15936;SDS011;9163;48.818;8.976;2023-07-22T06:42:34;4.70;;;2.30;;
15936;SDS011;9163;48.818;8.976;2023-07-22T06:45:02;3.73;;;2.03;;
15936;SDS011;9163;48.818;8.976;2023-07-22T06:47:30;3.33;;;2.03;;
15936;SDS011;9163;48.818;8.976;2023-07-22T06:49:57;3.70;;;2.03;;
15936;SDS011;9163;48.818;8.976;2023-07-22T06:52:26;4.80;;;1.97;;
15936;SDS011;9163;48.818;8.976;2023-07-22T06:54:53;3.60;;;1.90;;
15936;SDS011;9163;48.818;8.976;2023-07-22T06:57:21;3.87;;;1.90;;
15936;SDS011;9163;48.818;8.976;2023-07-22T06:59:48;3.67;;;2.23;;
15936;SDS011;9163;48.818;8.976;2023-07-22T07:02:16;3.23;;;1.87;;
15936;SDS011;9163;48.818;8.976;2023-07-22T07:04:43;2.77;;;1.90;;
15936;SDS011;9163;48.818;8.976;2023-07-22T07:07:10;2.63;;;1.90;;
15936;SDS011;9163;48.818;8.976;2023-07-22T07:09:39;2.37;;;1.67;;
15936;SDS011;9163;48.818;8.976;2023-07-22T07:12:07;3.03;;;1.87;;
15936;SDS011;9163;48.818;8.976;2023-07-22T07:14:35;4.00;;;1.77;;
15936;SDS011;9163;48.818;8.976;2023-07-22T07:17:02;4.23;;;1.83;;
15936;SDS011;9163;48.818;8.976;2023-07-22T07:19:30;3.03;;;2.00;;
15936;SDS011;9163;48.818;8.976;2023-07-22T07:21:57;3.53;;;2.00;;
15936;SDS011;9163;48.818;8.976;2023-07-22T07:24:24;2.90;;;1.80;;
15936;SDS011;9163;48.818;8.976;2023-07-22T07:26:54;2.93;;;1.70;;
15936;SDS011;9163;48.818;8.976;2023-07-22T07:29:21;3.13;;;2.00;;
15936;SDS011;9163;48.818;8.976;2023-07-22T07:31:48;2.20;;;1.60;;
15936;SDS011;9163;48.818;8.976;2023-07-22T07:34:15;2.43;;;1.70;;
15936;SDS011;9163;48.818;8.976;2023-07-22T07:36:43;3.00;;;1.60;;
15936;SDS011;9163;48.818;8.976;2023-07-22T07:39:10;3.30;;;1.63;;
15936;SDS011;9163;48.818;8.976;2023-07-22T07:41:37;2.37;;;1.40;;
15936;SDS011;9163;48.818;8.976;2023-07-22T07:44:06;3.43;;;1.53;;
15936;SDS011;9163;48.818;8.976;2023-07-22T07:46:33;4.43;;;1.50;;
15936;SDS011;9163;48.818;8.976;2023-07-22T07:49:01;2.60;;;1.40;;
15936;SDS011;9163;48.818;8.976;2023-07-22T07:51:29;2.17;;;1.50;;
15936;SDS011;9163;48.818;8.976;2023-07-22T07:53:57;2.83;;;1.43;;
15936;SDS011;9163;48.818;8.976;2023-07-22T07:56:26;1.70;;;1.60;;
15936;SDS011;9163;48.818;8.976;2023-07-22T07:58:54;3.40;;;1.50;;
15936;SDS011;9163;48.818;8.976;2023-07-22T08:01:23;2.73;;;1.53;;
15936;SDS011;9163;48.818;8.976;2023-07-22T08:03:50;2.80;;;1.50;;
15936;SDS011;9163;48.818;8.976;2023-07-22T08:06:17;1.87;;;1.40;;
15936;SDS011;9163;48.818;8.976;2023-07-22T08:08:45;4.53;;;1.40;;
15936;SDS011;9163;48.818;8.976;2023-07-22T08:11:13;1.40;;;1.20;;
15936;SDS011;9163;48.818;8.976;2023-07-22T08:13:41;1.43;;;1.30;;
15936;SDS011;9163;48.818;8.976;2023-07-22T08:16:10;1.67;;;1.17;;
15936;SDS011;9163;48.818;8.976;2023-07-22T08:18:40;1.83;;;1.30;;
15936;SDS011;9163;48.818;8.976;2023-07-22T08:21:07;3.47;;;1.27;;
15936;SDS011;9163;48.818;8.976;2023-07-22T08:23:35;2.17;;;1.00;;
15936;SDS011;9163;48.818;8.976;2023-07-22T08:26:03;1.73;;;1.10;;
15936;SDS011;9163;48.818;8.976;2023-07-22T08:28:31;1.63;;;1.10;;
15936;SDS011;9163;48.818;8.976;2023-07-22T08:30:58;3.20;;;1.50;;
15936;SDS011;9163;48.818;8.976;2023-07-22T08:33:27;2.20;;;1.37;;
15936;SDS011;9163;48.818;8.976;2023-07-22T08:35:55;4.70;;;3.50;;
15936;SDS011;9163;48.818;8.976;2023-07-22T08:38:23;2.30;;;1.70;;
15936;SDS011;9163;48.818;8.976;2023-07-22T08:40:50;2.03;;;1.33;;
15936;SDS011;9163;48.818;8.976;2023-07-22T08:43:19;2.10;;;1.27;;
15936;SDS011;9163;48.818;8.976;2023-07-22T08:45:48;1.50;;;1.40;;
15936;SDS011;9163;48.818;8.976;2023-07-22T08:48:16;1.20;;;1.10;;
15936;SDS011;9163;48.818;8.976;2023-07-22T08:50:45;1.67;;;1.10;;
15936;SDS011;9163;48.818;8.976;2023-07-22T08:53:15;1.70;;;1.23;;
15936;SDS011;9163;48.818;8.976;2023-07-22T08:55:45;2.70;;;1.40;;
15936;SDS011;9163;48.818;8.976;2023-07-22T08:58:13;2.03;;;1.10;;
15936;SDS011;9163;48.818;8.976;2023-07-22T09:00:41;2.00;;;1.30;;
15936;SDS011;9163;48.818;8.976;2023-07-22T09:03:08;3.57;;;1.40;;
15936;SDS011;9163;48.818;8.976;2023-07-22T09:05:37;1.60;;;1.27;;
15936;SDS011;9163;48.818;8.976;2023-07-22T09:08:06;3.20;;;1.20;;
15936;SDS011;9163;48.818;8.976;2023-07-22T09:10:35;3.27;;;1.30;;
15936;SDS011;9163;48.818;8.976;2023-07-22T09:13:04;3.10;;;1.30;;
15936;SDS011;9163;48.818;8.976;2023-07-22T09:15:35;1.40;;;1.30;;
15936;SDS011;9163;48.818;8.976;2023-07-22T09:18:02;1.90;;;1.43;;
15936;SDS011;9163;48.818;8.976;2023-07-22T09:20:30;2.83;;;1.40;;
15936;SDS011;9163;48.818;8.976;2023-07-22T09:22:58;4.07;;;1.30;;
15936;SDS011;9163;48.818;8.976;2023-07-22T09:25:27;2.60;;;1.10;;
15936;SDS011;9163;48.818;8.976;2023-07-22T09:27:58;2.53;;;1.07;;
15936;SDS011;9163;48.818;8.976;2023-07-22T09:30:26;2.33;;;1.10;;
15936;SDS011;9163;48.818;8.976;2023-07-22T09:32:56;2.80;;;1.30;;
15936;SDS011;9163;48.818;8.976;2023-07-22T09:35:25;1.63;;;1.10;;
15936;SDS011;9163;48.818;8.976;2023-07-22T09:37:54;2.07;;;1.17;;
15936;SDS011;9163;48.818;8.976;2023-07-22T09:40:22;2.00;;;1.43;;
15936;SDS011;9163;48.818;8.976;2023-07-22T09:42:51;1.67;;;1.20;;
15936;SDS011;9163;48.818;8.976;2023-07-22T09:45:22;1.47;;;1.20;;
15936;SDS011;9163;48.818;8.976;2023-07-22T09:47:51;2.30;;;1.27;;
15936;SDS011;9163;48.818;8.976;2023-07-22T09:50:19;1.73;;;1.20;;
15936;SDS011;9163;48.818;8.976;2023-07-22T09:52:48;1.58;;;1.30;;
15936;SDS011;9163;48.818;8.976;2023-07-22T09:55:17;1.33;;;1.23;;
15936;SDS011;9163;48.818;8.976;2023-07-22T09:57:45;1.20;;;1.00;;
15936;SDS011;9163;48.818;8.976;2023-07-22T10:00:14;1.52;;;1.30;;
15936;SDS011;9163;48.818;8.976;2023-07-22T10:02:47;2.15;;;1.17;;
15936;SDS011;9163;48.818;8.976;2023-07-22T10:05:16;1.98;;;1.00;;
15936;SDS011;9163;48.818;8.976;2023-07-22T10:07:45;1.40;;;1.10;;
15936;SDS011;9163;48.818;8.976;2023-07-22T10:10:14;1.70;;;1.00;;
15936;SDS011;9163;48.818;8.976;2023-07-22T10:12:43;1.93;;;1.20;;
15936;SDS011;9163;48.818;8.976;2023-07-22T10:15:12;1.53;;;1.20;;
15936;SDS011;9163;48.818;8.976;2023-07-22T10:17:41;1.43;;;1.20;;
15936;SDS011;9163;48.818;8.976;2023-07-22T10:20:11;3.10;;;1.37;;
15936;SDS011;9163;48.818;8.976;2023-07-22T10:22:42;1.60;;;1.40;;
15936;SDS011;9163;48.818;8.976;2023-07-22T10:25:11;2.90;;;1.20;;
15936;SDS011;9163;48.818;8.976;2023-07-22T10:27:39;3.47;;;1.20;;
15936;SDS011;9163;48.818;8.976;2023-07-22T10:30:07;1.40;;;1.27;;
15936;SDS011;9163;48.818;8.976;2023-07-22T10:32:36;2.60;;;1.40;;
15936;SDS011;9163;48.818;8.976;2023-07-22T10:35:07;2.13;;;1.20;;
15936;SDS011;9163;48.818;8.976;2023-07-22T10:37:38;2.38;;;1.13;;
15936;SDS011;9163;48.818;8.976;2023-07-22T10:40:19;1.23;;;0.95;;
15936;SDS011;9163;48.818;8.976;2023-07-22T10:42:53;1.63;;;1.20;;
15936;SDS011;9163;48.818;8.976;2023-07-22T10:45:24;1.73;;;1.17;;
15936;SDS011;9163;48.818;8.976;2023-07-22T10:47:59;2.53;;;1.30;;
15936;SDS011;9163;48.818;8.976;2023-07-22T10:50:37;2.40;;;1.60;;
15936;SDS011;9163;48.818;8.976;2023-07-22T10:53:11;1.83;;;1.40;;
15936;SDS011;9163;48.818;8.976;2023-07-22T10:58:32;2.28;;;1.42;;
15936;SDS011;9163;48.818;8.976;2023-07-22T11:01:23;2.22;;;1.60;;
15936;SDS011;9163;48.818;8.976;2023-07-22T11:04:05;2.55;;;1.40;;
15936;SDS011;9163;48.818;8.976;2023-07-22T11:06:33;1.95;;;1.42;;
15936;SDS011;9163;48.818;8.976;2023-07-22T11:09:02;1.90;;;1.45;;
15936;SDS011;9163;48.818;8.976;2023-07-22T11:11:36;3.35;;;1.20;;
15936;SDS011;9163;48.818;8.976;2023-07-22T11:14:14;2.45;;;1.65;;
15936;SDS011;9163;48.818;8.976;2023-07-22T11:16:42;1.58;;;1.33;;
15936;SDS011;9163;48.818;8.976;2023-07-22T11:19:10;2.45;;;1.42;;
15936;SDS011;9163;48.818;8.976;2023-07-22T11:21:39;2.00;;;1.50;;
15936;SDS011;9163;48.818;8.976;2023-07-22T11:24:08;2.53;;;1.38;;
15936;SDS011;9163;48.818;8.976;2023-07-22T11:26:35;1.50;;;1.25;;
15936;SDS011;9163;48.818;8.976;2023-07-22T11:29:04;2.65;;;1.45;;
15936;SDS011;9163;48.818;8.976;2023-07-22T11:31:32;3.00;;;1.48;;
15936;SDS011;9163;48.818;8.976;2023-07-22T11:34:02;3.10;;;1.40;;
15936;SDS011;9163;48.818;8.976;2023-07-22T11:36:30;1.88;;;1.40;;
15936;SDS011;9163;48.818;8.976;2023-07-22T11:39:01;4.00;;;1.52;;
15936;SDS011;9163;48.818;8.976;2023-07-22T11:41:31;1.95;;;1.50;;
15936;SDS011;9163;48.818;8.976;2023-07-22T11:43:59;3.17;;;1.40;;
15936;SDS011;9163;48.818;8.976;2023-07-22T11:46:28;2.75;;;1.45;;
15936;SDS011;9163;48.818;8.976;2023-07-22T11:48:55;2.78;;;1.33;;
15936;SDS011;9163;48.818;8.976;2023-07-22T11:51:23;2.85;;;1.40;;
15936;SDS011;9163;48.818;8.976;2023-07-22T11:53:51;1.55;;;1.30;;
15936;SDS011;9163;48.818;8.976;2023-07-22T11:56:23;2.83;;;1.60;;
15936;SDS011;9163;48.818;8.976;2023-07-22T11:58:53;2.15;;;1.80;;
15936;SDS011;9163;48.818;8.976;2023-07-22T12:01:22;2.40;;;1.65;;
15936;SDS011;9163;48.818;8.976;2023-07-22T12:03:55;1.92;;;1.55;;
15936;SDS011;9163;48.818;8.976;2023-07-22T12:06:24;3.30;;;1.90;;
15936;SDS011;9163;48.818;8.976;2023-07-22T12:08:52;2.58;;;1.70;;
15936;SDS011;9163;48.818;8.976;2023-07-22T12:11:20;2.30;;;1.60;;
15936;SDS011;9163;48.818;8.976;2023-07-22T12:13:49;3.15;;;1.83;;
15936;SDS011;9163;48.818;8.976;2023-07-22T12:16:32;2.80;;;1.65;;
15936;SDS011;9163;48.818;8.976;2023-07-22T12:19:01;1.85;;;1.58;;
15936;SDS011;9163;48.818;8.976;2023-07-22T12:21:29;2.47;;;1.58;;
15936;SDS011;9163;48.818;8.976;2023-07-22T12:23:56;1.65;;;1.50;;
15936;SDS011;9163;48.818;8.976;2023-07-22T12:26:24;3.65;;;1.92;;
15936;SDS011;9163;48.818;8.976;2023-07-22T12:28:51;2.20;;;1.55;;
15936;SDS011;9163;48.818;8.976;2023-07-22T12:31:19;2.67;;;1.60;;
15936;SDS011;9163;48.818;8.976;2023-07-22T12:33:48;1.90;;;1.70;;
15936;SDS011;9163;48.818;8.976;2023-07-22T12:36:15;4.05;;;1.90;;
15936;SDS011;9163;48.818;8.976;2023-07-22T12:38:42;4.40;;;2.20;;
15936;SDS011;9163;48.818;8.976;2023-07-22T12:41:09;2.55;;;1.92;;
15936;SDS011;9163;48.818;8.976;2023-07-22T12:43:37;3.15;;;1.80;;
15936;SDS011;9163;48.818;8.976;2023-07-22T12:46:04;1.98;;;1.77;;
15936;SDS011;9163;48.818;8.976;2023-07-22T12:48:31;2.10;;;1.70;;
15936;SDS011;9163;48.818;8.976;2023-07-22T12:51:00;3.78;;;2.15;;
15936;SDS011;9163;48.818;8.976;2023-07-22T12:53:27;5.95;;;1.95;;
15936;SDS011;9163;48.818;8.976;2023-07-22T12:55:54;2.22;;;1.80;;
15936;SDS011;9163;48.818;8.976;2023-07-22T12:58:22;3.30;;;1.85;;
15936;SDS011;9163;48.818;8.976;2023-07-22T13:00:49;3.83;;;2.35;;
15936;SDS011;9163;48.818;8.976;2023-07-22T13:03:16;2.90;;;2.22;;
15936;SDS011;9163;48.818;8.976;2023-07-22T13:05:43;2.72;;;2.05;;
15936;SDS011;9163;48.818;8.976;2023-07-22T13:08:12;2.50;;;1.63;;
15936;SDS011;9163;48.818;8.976;2023-07-22T13:10:39;2.45;;;1.80;;
15936;SDS011;9163;48.818;8.976;2023-07-22T13:13:10;2.42;;;1.77;;
15936;SDS011;9163;48.818;8.976;2023-07-22T13:15:37;2.30;;;1.90;;
15936;SDS011;9163;48.818;8.976;2023-07-22T13:18:04;2.00;;;1.58;;
15936;SDS011;9163;48.818;8.976;2023-07-22T13:20:33;2.90;;;1.83;;
15936;SDS011;9163;48.818;8.976;2023-07-22T13:23:00;3.03;;;1.88;;
15936;SDS011;9163;48.818;8.976;2023-07-22T13:25:29;2.10;;;1.90;;
15936;SDS011;9163;48.818;8.976;2023-07-22T13:27:56;3.22;;;1.98;;
15936;SDS011;9163;48.818;8.976;2023-07-22T13:30:23;3.78;;;2.10;;
15936;SDS011;9163;48.818;8.976;2023-07-22T13:32:51;2.65;;;1.98;;
15936;SDS011;9163;48.818;8.976;2023-07-22T13:35:19;1.85;;;1.67;;
15936;SDS011;9163;48.818;8.976;2023-07-22T13:37:46;2.20;;;1.83;;
15936;SDS011;9163;48.818;8.976;2023-07-22T13:40:13;2.65;;;1.90;;
15936;SDS011;9163;48.818;8.976;2023-07-22T13:42:42;2.08;;;1.83;;
15936;SDS011;9163;48.818;8.976;2023-07-22T13:45:10;2.03;;;1.65;;
15936;SDS011;9163;48.818;8.976;2023-07-22T13:47:38;2.10;;;1.60;;
15936;SDS011;9163;48.818;8.976;2023-07-22T13:50:06;2.05;;;1.75;;
15936;SDS011;9163;48.818;8.976;2023-07-22T13:52:33;2.33;;;1.80;;
15936;SDS011;9163;48.818;8.976;2023-07-22T13:55:01;2.00;;;1.70;;
15936;SDS011;9163;48.818;8.976;2023-07-22T13:57:28;3.90;;;1.95;;
15936;SDS011;9163;48.818;8.976;2023-07-22T13:59:57;2.28;;;1.88;;
15936;SDS011;9163;48.818;8.976;2023-07-22T14:02:24;2.97;;;1.95;;
15936;SDS011;9163;48.818;8.976;2023-07-22T14:04:52;3.65;;;1.88;;
15936;SDS011;9163;48.818;8.976;2023-07-22T14:07:19;2.55;;;1.88;;
15936;SDS011;9163;48.818;8.976;2023-07-22T14:09:46;2.65;;;1.85;;
15936;SDS011;9163;48.818;8.976;2023-07-22T14:12:13;3.67;;;1.83;;
15936;SDS011;9163;48.818;8.976;2023-07-22T14:14:40;3.08;;;1.80;;
15936;SDS011;9163;48.818;8.976;2023-07-22T14:17:09;2.83;;;2.10;;
15936;SDS011;9163;48.818;8.976;2023-07-22T14:19:36;4.15;;;2.20;;
15936;SDS011;9163;48.818;8.976;2023-07-22T14:22:04;5.00;;;2.03;;
15936;SDS011;9163;48.818;8.976;2023-07-22T14:24:31;2.95;;;2.45;;
15936;SDS011;9163;48.818;8.976;2023-07-22T14:26:58;3.30;;;2.55;;
15936;SDS011;9163;48.818;8.976;2023-07-22T14:29:26;3.22;;;2.40;;
15936;SDS011;9163;48.818;8.976;2023-07-22T14:31:55;3.60;;;2.10;;
15936;SDS011;9163;48.818;8.976;2023-07-22T14:34:24;2.88;;;2.17;;
15936;SDS011;9163;48.818;8.976;2023-07-22T14:36:51;2.90;;;2.08;;
15936;SDS011;9163;48.818;8.976;2023-07-22T14:39:18;3.30;;;2.10;;
15936;SDS011;9163;48.818;8.976;2023-07-22T14:41:45;4.72;;;2.65;;
15936;SDS011;9163;48.818;8.976;2023-07-22T14:44:13;4.45;;;2.17;;
15936;SDS011;9163;48.818;8.976;2023-07-22T14:46:40;2.85;;;2.05;;
15936;SDS011;9163;48.818;8.976;2023-07-22T14:49:07;2.78;;;2.20;;
15936;SDS011;9163;48.818;8.976;2023-07-22T14:51:36;2.78;;;2.20;;
15936;SDS011;9163;48.818;8.976;2023-07-22T14:54:03;2.70;;;2.13;;
15936;SDS011;9163;48.818;8.976;2023-07-22T14:56:31;2.60;;;2.00;;
15936;SDS011;9163;48.818;8.976;2023-07-22T14:58:58;2.40;;;2.15;;
15936;SDS011;9163;48.818;8.976;2023-07-22T15:01:25;3.17;;;2.20;;
15936;SDS011;9163;48.818;8.976;2023-07-22T15:03:53;3.50;;;2.20;;
15936;SDS011;9163;48.818;8.976;2023-07-22T15:06:21;3.88;;;2.25;;
15936;SDS011;9163;48.818;8.976;2023-07-22T15:08:50;3.05;;;2.13;;